Time;durP1;ratioP1;P1;durP2;ratioP2;P2;SDS_P1;SDS_P2;PMS_P1;PMS_P2;Temp;Humidity;BMP_temperature;BMP_pressure;BME280_temperature;BME280_humidity;BME280_pressure;Samples;Min_cycle;Max_cycle;Signal;HPM_P1;HPM_P2
2024/02/28 00:01:28;;;;;;;128.00;67.20;;;;;;;;;;106476;1254;61246;-82
2024/02/28 00:03:55;;;;;;;102.30;58.20;;;;;;;;;;106483;1256;61371;-78
2024/02/28 00:06:21;;;;;;;111.80;58.10;;;;;;;;;;106264;1254;61268;-82
2024/02/28 00:08:49;;;;;;;100.70;55.70;;;;;;;;;;106506;1254;61354;-82
2024/02/28 00:11:15;;;;;;;96.20;53.40;;;;;;;;;;106481;1253;61272;-82
2024/02/28 00:13:41;;;;;;;99.10;53.90;;;;;;;;;;107098;1254;61142;-82
2024/02/28 00:16:08;;;;;;;100.10;53.70;;;;;;;;;;107034;1253;61296;-82
2024/02/28 00:18:34;;;;;;;109.60;54.50;;;;;;;;;;107118;1253;61295;-78
2024/02/28 00:21:01;;;;;;;105.70;54.70;;;;;;;;;;107072;1256;61184;-81
2024/02/28 00:23:27;;;;;;;110.80;57.10;;;;;;;;;;107193;1254;61349;-81
2024/02/28 00:25:53;;;;;;;102.30;56.10;;;;;;;;;;107085;1253;61333;-81
2024/02/28 00:28:20;;;;;;;106.50;60.40;;;;;;;;;;107052;1253;62389;-82
2024/02/28 00:30:46;;;;;;;112.30;60.40;;;;;;;;;;106918;1259;61426;-82
2024/02/28 00:33:13;;;;;;;109.30;58.90;;;;;;;;;;107042;1253;59416;-79
2024/02/28 00:35:39;;;;;;;90.80;52.60;;;;;;;;;;106475;1253;61379;-81
2024/02/28 00:38:05;;;;;;;101.00;55.90;;;;;;;;;;106341;1257;61335;-82
2024/02/28 00:40:32;;;;;;;118.40;67.40;;;;;;;;;;106495;1253;61263;-82
2024/02/28 00:42:58;;;;;;;114.10;62.70;;;;;;;;;;106413;1254;61165;-79
2024/02/28 00:45:25;;;;;;;91.20;54.20;;;;;;;;;;109012;1253;59342;-79
2024/02/28 00:47:51;;;;;;;98.50;54.70;;;;;;;;;;109488;1253;58888;-81
2024/02/28 00:50:17;;;;;;;94.60;53.50;;;;;;;;;;109498;1252;58954;-82
2024/02/28 00:52:44;;;;;;;101.70;53.90;;;;;;;;;;109482;1253;58868;-79
2024/02/28 00:55:10;;;;;;;94.40;52.30;;;;;;;;;;109496;1253;59051;-82
2024/02/28 00:57:37;;;;;;;93.00;50.30;;;;;;;;;;109426;1252;58967;-79
2024/02/28 01:00:05;;;;;;;96.90;53.80;;;;;;;;;;109121;1253;59156;-82
2024/02/28 01:02:32;;;;;;;88.50;50.50;;;;;;;;;;107122;1254;61683;-79
2024/02/28 01:04:58;;;;;;;96.10;53.70;;;;;;;;;;106508;1253;61218;-81
2024/02/28 01:07:25;;;;;;;99.30;56.70;;;;;;;;;;106543;1256;61390;-78
2024/02/28 01:09:51;;;;;;;100.20;53.30;;;;;;;;;;106934;1254;61362;-79
2024/02/28 01:12:17;;;;;;;103.50;55.00;;;;;;;;;;106359;1257;61272;-79
2024/02/28 01:14:44;;;;;;;93.00;49.50;;;;;;;;;;106556;1253;61399;-81
2024/02/28 01:17:10;;;;;;;94.00;50.30;;;;;;;;;;106460;1253;61364;-82
2024/02/28 01:19:37;;;;;;;97.50;52.30;;;;;;;;;;106459;1252;61947;-81
2024/02/28 01:22:03;;;;;;;96.70;50.50;;;;;;;;;;107103;1254;61372;-78
2024/02/28 01:24:30;;;;;;;88.00;51.10;;;;;;;;;;106520;1253;61234;-79
2024/02/28 01:26:56;;;;;;;93.00;50.80;;;;;;;;;;106297;1253;61120;-78
2024/02/28 01:29:22;;;;;;;93.80;50.50;;;;;;;;;;106513;1256;61347;-82
2024/02/28 01:31:49;;;;;;;98.40;49.80;;;;;;;;;;106510;1253;61343;-82
2024/02/28 01:34:15;;;;;;;93.80;50.10;;;;;;;;;;106480;1253;61151;-79
2024/02/28 01:36:42;;;;;;;78.10;44.10;;;;;;;;;;106351;1253;61104;-79
2024/02/28 01:39:08;;;;;;;87.10;44.90;;;;;;;;;;106494;1256;61222;-79
2024/02/28 01:41:35;;;;;;;76.20;42.90;;;;;;;;;;106316;1253;61352;-78
2024/02/28 01:44:01;;;;;;;76.10;41.90;;;;;;;;;;106478;1253;61398;-81
2024/02/28 01:46:27;;;;;;;78.80;43.00;;;;;;;;;;106484;1256;61322;-78
2024/02/28 01:48:54;;;;;;;88.10;46.10;;;;;;;;;;106226;1254;61293;-82
2024/02/28 01:51:22;;;;;;;85.60;47.80;;;;;;;;;;106456;1253;61440;-79
2024/02/28 01:53:48;;;;;;;73.70;40.00;;;;;;;;;;106497;1256;62918;-81
2024/02/28 01:56:16;;;;;;;89.40;45.20;;;;;;;;;;106301;1254;59938;-82
2024/02/28 01:58:43;;;;;;;81.80;42.40;;;;;;;;;;108593;1252;59492;-83
2024/02/28 02:01:11;;;;;;;68.70;38.40;;;;;;;;;;109476;1253;59033;-83
2024/02/28 02:03:37;;;;;;;69.60;40.20;;;;;;;;;;109498;1253;61916;-79
2024/02/28 02:06:04;;;;;;;68.30;38.60;;;;;;;;;;108942;1253;61316;-79
2024/02/28 02:08:30;;;;;;;74.70;39.60;;;;;;;;;;106496;1253;61359;-79
2024/02/28 02:10:56;;;;;;;64.30;36.50;;;;;;;;;;106494;1256;61349;-79
2024/02/28 02:13:23;;;;;;;72.60;37.10;;;;;;;;;;106555;1256;61401;-82
2024/02/28 02:15:49;;;;;;;75.40;41.80;;;;;;;;;;106491;1256;61308;-79
2024/02/28 02:18:15;;;;;;;77.30;40.10;;;;;;;;;;106360;1257;61220;-79
2024/02/28 02:20:43;;;;;;;72.10;41.20;;;;;;;;;;106300;1257;61305;-82
2024/02/28 02:23:10;;;;;;;85.60;42.30;;;;;;;;;;106915;1254;61263;-79
2024/02/28 02:25:43;;;;;;;65.50;39.20;;;;;;;;;;106302;1256;61151;-81
2024/02/28 02:28:10;;;;;;;71.10;41.30;;;;;;;;;;107133;1253;61855;-82
2024/02/28 02:30:36;;;;;;;68.60;41.40;;;;;;;;;;107137;1253;61355;-78
2024/02/28 02:33:02;;;;;;;71.90;41.00;;;;;;;;;;106505;1253;61471;-79
2024/02/28 02:35:29;;;;;;;79.20;39.10;;;;;;;;;;106445;1253;61330;-78
2024/02/28 02:37:55;;;;;;;68.50;40.40;;;;;;;;;;106493;1253;61244;-79
2024/02/28 02:40:22;;;;;;;65.60;35.90;;;;;;;;;;106473;1256;61249;-82
2024/02/28 02:42:48;;;;;;;71.00;37.90;;;;;;;;;;106338;1257;61358;-80
2024/02/28 02:45:14;;;;;;;70.30;38.30;;;;;;;;;;106990;1253;63369;-82
2024/02/28 02:47:41;;;;;;;76.70;40.90;;;;;;;;;;106920;1253;61334;-79
2024/02/28 02:50:07;;;;;;;74.40;41.30;;;;;;;;;;107043;1253;62514;-78
2024/02/28 02:52:33;;;;;;;76.00;41.60;;;;;;;;;;106485;1253;61235;-81
2024/02/28 02:55:00;;;;;;;72.70;42.90;;;;;;;;;;106179;1253;61259;-81
2024/02/28 02:57:26;;;;;;;70.30;37.90;;;;;;;;;;106433;1253;61251;-78
2024/02/28 02:59:53;;;;;;;69.60;38.70;;;;;;;;;;108591;1253;61234;-82
2024/02/28 03:02:19;;;;;;;69.30;37.00;;;;;;;;;;107746;1252;61437;-79
2024/02/28 03:04:45;;;;;;;82.20;40.50;;;;;;;;;;106799;1252;61329;-79
2024/02/28 03:07:12;;;;;;;70.00;39.60;;;;;;;;;;109474;1253;60796;-82
2024/02/28 03:09:38;;;;;;;65.30;38.60;;;;;;;;;;108962;1252;61285;-78
2024/02/28 03:12:05;;;;;;;89.00;41.10;;;;;;;;;;106298;1259;61315;-82
2024/02/28 03:14:31;;;;;;;64.20;38.40;;;;;;;;;;107094;1253;61362;-79
2024/02/28 03:16:57;;;;;;;66.60;37.20;;;;;;;;;;107075;1253;61291;-79
2024/02/28 03:19:24;;;;;;;71.20;35.80;;;;;;;;;;106526;1253;61263;-78
2024/02/28 03:21:50;;;;;;;58.20;34.80;;;;;;;;;;106487;1253;61356;-81
2024/02/28 03:24:17;;;;;;;61.50;33.60;;;;;;;;;;106450;1253;61311;-82
2024/02/28 03:26:44;;;;;;;60.20;34.60;;;;;;;;;;106503;1253;61257;-79
2024/02/28 03:29:10;;;;;;;63.10;33.90;;;;;;;;;;106278;1259;61276;-79
2024/02/28 03:31:37;;;;;;;60.30;34.50;;;;;;;;;;106275;1253;62417;-79
2024/02/28 03:34:03;;;;;;;64.20;35.60;;;;;;;;;;106283;1253;61432;-82
2024/02/28 03:36:30;;;;;;;62.90;33.50;;;;;;;;;;107039;1254;61227;-81
2024/02/28 03:38:56;;;;;;;65.00;37.50;;;;;;;;;;107094;1256;61713;-78
2024/02/28 03:41:23;;;;;;;71.00;41.20;;;;;;;;;;106525;1253;61289;-81
2024/02/28 03:43:49;;;;;;;69.20;40.60;;;;;;;;;;107073;1253;61100;-82
2024/02/28 03:46:15;;;;;;;71.40;42.10;;;;;;;;;;106438;1253;61115;-82
2024/02/28 03:48:42;;;;;;;66.20;36.10;;;;;;;;;;106453;1256;62338;-82
2024/02/28 03:51:08;;;;;;;60.00;35.60;;;;;;;;;;106552;1253;61385;-78
2024/02/28 03:53:35;;;;;;;65.00;36.80;;;;;;;;;;106497;1254;61362;-78
2024/02/28 03:56:01;;;;;;;60.30;33.90;;;;;;;;;;106560;1254;61223;-79
2024/02/28 03:58:29;;;;;;;53.40;30.30;;;;;;;;;;106488;1253;61376;-79
2024/02/28 04:00:55;;;;;;;54.50;32.10;;;;;;;;;;106493;1256;61334;-79
2024/02/28 04:03:22;;;;;;;59.90;34.60;;;;;;;;;;106611;1253;61951;-79
2024/02/28 04:05:48;;;;;;;51.60;32.00;;;;;;;;;;106548;1256;61870;-81
2024/02/28 04:08:15;;;;;;;63.40;33.50;;;;;;;;;;106422;1254;61356;-78
2024/02/28 04:10:41;;;;;;;57.80;33.70;;;;;;;;;;106190;1259;61462;-78
2024/02/28 04:13:07;;;;;;;55.00;30.70;;;;;;;;;;106501;1256;61222;-82
2024/02/28 04:15:34;;;;;;;57.60;31.20;;;;;;;;;;109470;1252;58854;-81
2024/02/28 04:18:00;;;;;;;59.30;32.50;;;;;;;;;;109597;1253;58964;-81
2024/02/28 04:20:27;;;;;;;63.40;36.20;;;;;;;;;;109387;1253;59212;-79
2024/02/28 04:22:53;;;;;;;60.70;35.60;;;;;;;;;;107658;1253;60335;-79
2024/02/28 04:25:20;;;;;;;57.30;35.20;;;;;;;;;;106319;1252;61336;-78
2024/02/28 04:27:47;;;;;;;64.80;35.10;;;;;;;;;;106519;1253;61190;-78
2024/02/28 04:30:13;;;;;;;53.50;31.30;;;;;;;;;;106539;1256;61861;-78
2024/02/28 04:32:40;;;;;;;63.20;35.40;;;;;;;;;;106472;1256;61336;-82
2024/02/28 04:35:06;;;;;;;57.30;34.30;;;;;;;;;;106488;1252;61359;-82
2024/02/28 04:37:34;;;;;;;57.80;31.60;;;;;;;;;;106486;1253;61388;-81
2024/02/28 04:40:01;;;;;;;55.70;32.10;;;;;;;;;;106280;1253;61340;-81
2024/02/28 04:42:27;;;;;;;61.10;34.00;;;;;;;;;;106524;1254;62252;-78
2024/02/28 04:44:54;;;;;;;55.00;31.50;;;;;;;;;;106289;1253;61369;-79
2024/02/28 04:47:20;;;;;;;54.70;30.50;;;;;;;;;;106475;1253;61256;-78
2024/02/28 04:49:46;;;;;;;54.90;31.50;;;;;;;;;;106501;1253;61120;-81
2024/02/28 04:52:13;;;;;;;63.00;34.10;;;;;;;;;;106484;1254;61217;-81
2024/02/28 04:54:40;;;;;;;52.40;31.20;;;;;;;;;;106453;1253;61432;-82
2024/02/28 04:57:06;;;;;;;57.90;33.00;;;;;;;;;;106495;1253;61322;-81
2024/02/28 04:59:33;;;;;;;58.30;31.30;;;;;;;;;;106518;1256;61317;-81
2024/02/28 05:01:59;;;;;;;54.40;29.20;;;;;;;;;;106436;1253;61336;-81
2024/02/28 05:04:26;;;;;;;48.70;28.20;;;;;;;;;;106331;1253;61349;-78
2024/02/28 05:06:53;;;;;;;47.40;28.20;;;;;;;;;;106535;1253;61371;-81
2024/02/28 05:09:19;;;;;;;55.80;31.50;;;;;;;;;;106495;1256;61247;-81
2024/02/28 05:11:45;;;;;;;50.30;29.40;;;;;;;;;;106476;1253;61231;-78
2024/02/28 05:14:12;;;;;;;60.20;31.90;;;;;;;;;;106507;1256;61331;-81
2024/02/28 05:16:38;;;;;;;62.40;35.20;;;;;;;;;;106467;1253;61304;-81
2024/02/28 05:19:05;;;;;;;66.60;35.90;;;;;;;;;;106949;1253;61218;-78
2024/02/28 05:21:31;;;;;;;60.60;35.40;;;;;;;;;;106827;1253;63326;-82
2024/02/28 05:23:58;;;;;;;64.10;34.90;;;;;;;;;;109478;1252;58846;-79
2024/02/28 05:26:25;;;;;;;59.00;35.10;;;;;;;;;;109260;1252;58897;-81
2024/02/28 05:28:51;;;;;;;58.70;34.20;;;;;;;;;;106931;1253;61305;-82
2024/02/28 05:31:22;;;;;;;63.30;33.00;;;;;;;;;;106943;1253;61137;-81
2024/02/28 05:33:50;;;;;;;66.90;31.60;;;;;;;;;;107101;1253;61119;-81
2024/02/28 05:36:16;;;;;;;58.60;30.50;;;;;;;;;;106900;1253;61264;-82
2024/02/28 05:38:42;;;;;;;60.30;31.00;;;;;;;;;;107099;1253;61231;-81
2024/02/28 05:41:09;;;;;;;51.10;30.10;;;;;;;;;;107092;1254;61279;-78
2024/02/28 05:43:38;;;;;;;54.00;30.00;;;;;;;;;;106465;1253;61803;-78
2024/02/28 05:46:04;;;;;;;50.60;28.20;;;;;;;;;;106295;1256;231201;-82
2024/02/28 05:48:31;;;;;;;59.00;28.90;;;;;;;;;;107005;1253;62288;-78
2024/02/28 05:50:57;;;;;;;69.60;29.70;;;;;;;;;;106438;1253;61263;-78
2024/02/28 05:53:26;;;;;;;62.50;29.20;;;;;;;;;;106488;1253;61324;-82
2024/02/28 05:55:53;;;;;;;56.30;26.30;;;;;;;;;;106479;1256;62017;-78
2024/02/28 05:58:20;;;;;;;49.70;26.00;;;;;;;;;;106278;1253;61266;-82
2024/02/28 06:00:47;;;;;;;50.20;28.20;;;;;;;;;;106465;1256;61461;-81
2024/02/28 06:03:13;;;;;;;51.30;30.30;;;;;;;;;;106505;1253;61324;-82
2024/02/28 06:05:41;;;;;;;53.50;30.80;;;;;;;;;;106539;1253;61298;-82
2024/02/28 06:08:09;;;;;;;62.10;32.80;;;;;;;;;;106530;1253;63032;-82
2024/02/28 06:10:35;;;;;;;62.10;32.50;;;;;;;;;;106310;1256;61161;-81
2024/02/28 06:13:02;;;;;;;62.00;32.50;;;;;;;;;;106519;1251;61217;-78
2024/02/28 06:15:28;;;;;;;66.50;34.20;;;;;;;;;;106350;1257;61227;-82
2024/02/28 06:18:00;;;;;;;58.80;32.80;;;;;;;;;;106343;1253;63269;-78
2024/02/28 06:20:27;;;;;;;67.90;32.20;;;;;;;;;;106334;1254;62000;-81
2024/02/28 06:22:54;;;;;;;61.00;34.00;;;;;;;;;;106330;1252;61273;-81
2024/02/28 06:25:22;;;;;;;55.50;32.40;;;;;;;;;;106455;1251;61331;-78
2024/02/28 06:27:49;;;;;;;62.40;34.80;;;;;;;;;;106351;1255;61313;-78
2024/02/28 06:30:16;;;;;;;61.70;30.80;;;;;;;;;;106494;1253;61123;-81
2024/02/28 06:32:43;;;;;;;62.40;33.20;;;;;;;;;;106520;1256;62266;-78
2024/02/28 06:35:09;;;;;;;68.10;33.10;;;;;;;;;;106515;1251;61299;-78
2024/02/28 06:37:35;;;;;;;58.80;30.90;;;;;;;;;;106342;1252;61262;-78
2024/02/28 06:40:04;;;;;;;65.30;33.50;;;;;;;;;;106355;1259;61360;-82
2024/02/28 06:42:30;;;;;;;62.60;36.20;;;;;;;;;;106520;1254;61109;-78
2024/02/28 06:44:57;;;;;;;61.80;35.10;;;;;;;;;;106509;1255;63251;-81
2024/02/28 06:47:23;;;;;;;60.00;34.70;;;;;;;;;;106517;1254;61259;-82
2024/02/28 06:49:49;;;;;;;61.50;35.20;;;;;;;;;;106574;1251;62403;-78
2024/02/28 06:52:16;;;;;;;60.20;35.30;;;;;;;;;;107022;1256;61333;-78
2024/02/28 06:54:42;;;;;;;58.60;36.00;;;;;;;;;;109476;1251;59081;-82
2024/02/28 06:57:09;;;;;;;65.70;45.90;;;;;;;;;;109494;1251;59064;-79
2024/02/28 06:59:35;;;;;;;51.40;31.70;;;;;;;;;;107506;1255;61345;-78
2024/02/28 07:02:02;;;;;;;50.20;31.00;;;;;;;;;;107757;1251;59292;-78
2024/02/28 07:04:28;;;;;;;57.80;29.90;;;;;;;;;;108592;1253;59203;-82
2024/02/28 07:06:54;;;;;;;50.80;29.50;;;;;;;;;;107292;1253;61345;-78
2024/02/28 07:09:21;;;;;;;55.30;31.40;;;;;;;;;;106344;1259;60943;-82
2024/02/28 07:11:47;;;;;;;58.20;36.60;;;;;;;;;;106680;1256;61333;-77
2024/02/28 07:14:14;;;;;;;51.10;30.10;;;;;;;;;;106606;1253;61298;-78
2024/02/28 07:16:40;;;;;;;47.90;27.90;;;;;;;;;;106643;1254;61186;-78
2024/02/28 07:19:06;;;;;;;40.40;24.40;;;;;;;;;;106729;1253;61234;-79
2024/02/28 07:21:36;;;;;;;41.90;24.70;;;;;;;;;;106790;1256;61260;-78
2024/02/28 07:24:04;;;;;;;42.80;27.30;;;;;;;;;;106636;1254;61270;-78
2024/02/28 07:26:31;;;;;;;44.10;27.40;;;;;;;;;;106638;1256;61234;-82
2024/02/28 07:28:57;;;;;;;48.20;28.90;;;;;;;;;;107354;1253;61259;-82
2024/02/28 07:31:24;;;;;;;54.10;31.00;;;;;;;;;;107329;1253;61241;-78
2024/02/28 07:33:50;;;;;;;53.70;29.90;;;;;;;;;;106386;1253;61318;-82
2024/02/28 07:36:17;;;;;;;59.10;35.10;;;;;;;;;;106617;1253;61125;-78
2024/02/28 07:38:43;;;;;;;57.30;34.90;;;;;;;;;;106473;1254;61347;-78
2024/02/28 07:41:10;;;;;;;61.40;33.80;;;;;;;;;;106676;1253;61793;-82
2024/02/28 07:43:37;;;;;;;59.90;35.70;;;;;;;;;;107202;1252;61331;-77
2024/02/28 07:46:08;;;;;;;54.60;34.10;;;;;;;;;;106571;1253;61541;-78
2024/02/28 07:48:34;;;;;;;63.80;36.10;;;;;;;;;;109413;1255;59199;-82
2024/02/28 07:51:01;;;;;;;53.00;33.90;;;;;;;;;;109463;1252;59287;-81
2024/02/28 07:53:27;;;;;;;52.30;33.10;;;;;;;;;;109487;1251;59179;-78
2024/02/28 07:55:54;;;;;;;49.40;31.00;;;;;;;;;;109354;1252;59001;-78
2024/02/28 07:58:20;;;;;;;54.60;32.30;;;;;;;;;;109340;1253;58978;-82
2024/02/28 08:00:46;;;;;;;54.40;30.30;;;;;;;;;;109391;1252;59042;-78
2024/02/28 08:03:13;;;;;;;58.00;33.10;;;;;;;;;;109429;1252;59168;-79
2024/02/28 08:05:39;;;;;;;55.90;31.50;;;;;;;;;;109373;1253;59266;-78
2024/02/28 08:08:06;;;;;;;54.10;32.10;;;;;;;;;;109402;1252;58992;-79
2024/02/28 08:10:32;;;;;;;54.00;30.80;;;;;;;;;;109385;1253;59215;-82
2024/02/28 08:12:59;;;;;;;53.40;29.50;;;;;;;;;;109392;1253;59361;-78
2024/02/28 08:15:25;;;;;;;48.90;27.30;;;;;;;;;;109256;1253;59232;-82
2024/02/28 08:17:52;;;;;;;43.60;29.30;;;;;;;;;;109430;1252;58919;-81
2024/02/28 08:20:18;;;;;;;54.10;31.90;;;;;;;;;;109426;1252;59062;-79
2024/02/28 08:22:44;;;;;;;49.40;28.40;;;;;;;;;;109386;1253;59222;-82
2024/02/28 08:25:11;;;;;;;47.30;25.70;;;;;;;;;;109453;1254;59273;-82
2024/02/28 08:27:38;;;;;;;43.90;26.50;;;;;;;;;;109364;1253;58855;-79
2024/02/28 08:30:08;;;;;;;45.10;29.80;;;;;;;;;;109282;1253;58936;-82
2024/02/28 08:32:34;;;;;;;48.90;28.40;;;;;;;;;;109382;1253;59165;-79
2024/02/28 08:35:01;;;;;;;52.60;32.00;;;;;;;;;;109398;1251;59435;-79
2024/02/28 08:37:28;;;;;;;58.90;34.50;;;;;;;;;;109283;1254;58943;-78
2024/02/28 08:39:57;;;;;;;63.30;38.20;;;;;;;;;;109423;1253;60744;-79
2024/02/28 08:42:24;;;;;;;63.80;42.10;;;;;;;;;;109407;1253;58912;-79
2024/02/28 08:44:51;;;;;;;69.80;41.80;;;;;;;;;;108096;1253;59119;-82
2024/02/28 08:47:18;;;;;;;59.40;40.40;;;;;;;;;;106597;1256;61202;-77
2024/02/28 08:49:45;;;;;;;81.40;41.20;;;;;;;;;;106412;1253;61276;-77
2024/02/28 08:52:11;;;;;;;55.90;37.50;;;;;;;;;;106712;1254;61121;-80
2024/02/28 08:54:39;;;;;;;52.80;34.40;;;;;;;;;;106524;1254;61241;-77
2024/02/28 08:57:05;;;;;;;51.60;30.60;;;;;;;;;;106444;1253;61421;-79
2024/02/28 08:59:32;;;;;;;57.00;32.50;;;;;;;;;;106485;1253;61564;-79
2024/02/28 09:01:58;;;;;;;75.20;43.80;;;;;;;;;;106655;1253;61283;-76
2024/02/28 09:04:25;;;;;;;83.30;51.60;;;;;;;;;;106685;1254;61227;-79
2024/02/28 09:06:53;;;;;;;90.20;54.70;;;;;;;;;;106802;1256;61247;-77
2024/02/28 09:09:19;;;;;;;79.50;47.70;;;;;;;;;;106547;1253;61224;-78
2024/02/28 09:11:45;;;;;;;102.50;50.40;;;;;;;;;;106751;1253;61221;-82
2024/02/28 09:14:12;;;;;;;81.00;48.70;;;;;;;;;;106648;1256;61196;-81
2024/02/28 09:16:38;;;;;;;80.80;47.90;;;;;;;;;;106638;1256;61321;-81
2024/02/28 09:19:05;;;;;;;79.60;49.30;;;;;;;;;;107228;1251;61332;-78
2024/02/28 09:21:31;;;;;;;92.50;52.30;;;;;;;;;;106838;1253;61259;-81
2024/02/28 09:23:57;;;;;;;93.20;57.30;;;;;;;;;;107280;1253;61739;-79
2024/02/28 09:26:24;;;;;;;84.00;53.80;;;;;;;;;;107239;1256;62263;-82
2024/02/28 09:28:50;;;;;;;74.20;43.80;;;;;;;;;;107336;1254;61344;-81
2024/02/28 09:31:17;;;;;;;73.00;37.10;;;;;;;;;;107387;1256;60889;-78
2024/02/28 09:33:46;;;;;;;78.40;44.00;;;;;;;;;;106645;1254;61333;-78
2024/02/28 09:36:13;;;;;;;70.20;41.60;;;;;;;;;;106598;1256;61902;-78
2024/02/28 09:38:41;;;;;;;78.10;39.70;;;;;;;;;;106646;1256;61125;-83
2024/02/28 09:41:07;;;;;;;98.90;43.00;;;;;;;;;;106660;1254;61343;-79
2024/02/28 09:43:40;;;;;;;61.80;35.40;;;;;;;;;;106431;1259;61285;-84
2024/02/28 09:46:06;;;;;;;61.70;32.90;;;;;;;;;;107305;1253;61187;-78
2024/02/28 09:48:32;;;;;;;82.40;36.20;;;;;;;;;;107485;1253;62018;-78
2024/02/28 09:51:02;;;;;;;66.80;39.40;;;;;;;;;;107577;1252;61508;-83
2024/02/28 09:53:28;;;;;;;60.10;34.70;;;;;;;;;;107258;1254;61450;-79
2024/02/28 09:55:55;;;;;;;53.40;32.80;;;;;;;;;;106459;1259;61157;-79
2024/02/28 09:58:21;;;;;;;61.90;34.70;;;;;;;;;;106665;1256;61311;-78
2024/02/28 10:00:48;;;;;;;61.50;31.70;;;;;;;;;;106463;1254;61327;-83
2024/02/28 10:03:20;;;;;;;50.90;29.10;;;;;;;;;;109097;1253;59033;-83
2024/02/28 10:05:47;;;;;;;60.40;30.00;;;;;;;;;;109281;1257;59492;-83
2024/02/28 10:08:14;;;;;;;66.10;33.60;;;;;;;;;;109374;1252;59132;-78
2024/02/28 10:10:49;;;;;;;52.60;31.80;;;;;;;;;;109154;1252;59039;-79
2024/02/28 10:13:16;;;;;;;47.30;31.40;;;;;;;;;;109466;1253;60838;-79
2024/02/28 10:15:42;;;;;;;56.50;32.30;;;;;;;;;;109271;1253;59206;-79
2024/02/28 10:18:09;;;;;;;55.90;28.60;;;;;;;;;;109460;1251;59092;-79
2024/02/28 10:20:35;;;;;;;49.90;30.20;;;;;;;;;;109267;1253;58890;-81
2024/02/28 10:23:05;;;;;;;43.50;27.10;;;;;;;;;;109445;1253;59051;-81
2024/02/28 10:25:32;;;;;;;50.50;30.10;;;;;;;;;;109326;1254;62832;-79
2024/02/28 10:28:01;;;;;;;53.30;29.50;;;;;;;;;;107961;1254;61243;-81
2024/02/28 10:30:27;;;;;;;56.00;30.10;;;;;;;;;;106965;1251;61251;-81
2024/02/28 10:32:56;;;;;;;105.00;55.40;;;;;;;;;;107222;1256;61281;-78
2024/02/28 10:35:25;;;;;;;111.10;64.80;;;;;;;;;;106365;1254;61263;-78
2024/02/28 10:37:53;;;;;;;87.00;50.80;;;;;;;;;;106434;1256;62482;-78
2024/02/28 10:40:21;;;;;;;72.40;31.90;;;;;;;;;;106518;1253;61243;-78
2024/02/28 10:42:47;;;;;;;65.50;29.00;;;;;;;;;;106602;1254;61332;-83
2024/02/28 10:45:14;;;;;;;49.00;27.80;;;;;;;;;;107024;1253;61228;-78
2024/02/28 10:47:41;;;;;;;51.10;27.80;;;;;;;;;;106324;1254;61247;-79
2024/02/28 10:50:07;;;;;;;44.90;26.70;;;;;;;;;;106495;1256;62909;-79
2024/02/28 10:52:34;;;;;;;56.70;26.30;;;;;;;;;;106398;1259;61236;-84
2024/02/28 10:55:01;;;;;;;52.20;24.90;;;;;;;;;;107022;1253;59699;-84
2024/02/28 10:57:28;;;;;;;41.20;24.10;;;;;;;;;;107035;1256;61234;-78
2024/02/28 10:59:54;;;;;;;43.60;24.00;;;;;;;;;;106358;1254;61241;-83
2024/02/28 11:02:21;;;;;;;44.90;25.90;;;;;;;;;;107158;1254;61339;-83
2024/02/28 11:04:47;;;;;;;79.70;34.30;;;;;;;;;;106998;1254;62248;-79
2024/02/28 11:07:19;;;;;;;45.70;24.90;;;;;;;;;;106533;1254;61313;-83
2024/02/28 11:09:46;;;;;;;37.90;23.00;;;;;;;;;;107043;1251;61323;-79
2024/02/28 11:12:28;;;;;;;37.80;22.30;;;;;;;;;;107214;1254;61170;-78
2024/02/28 11:14:57;;;;;;;38.20;22.50;;;;;;;;;;107171;1256;61674;-78
2024/02/28 11:17:31;;;;;;;66.60;34.10;;;;;;;;;;107120;1253;61238;-83
2024/02/28 11:19:57;;;;;;;178.10;87.40;;;;;;;;;;107125;1255;61949;-83
2024/02/28 11:22:23;;;;;;;218.60;108.20;;;;;;;;;;107092;1254;61195;-84
2024/02/28 11:24:53;;;;;;;378.40;172.40;;;;;;;;;;107123;1257;61097;-83
2024/02/28 11:27:19;;;;;;;229.30;114.20;;;;;;;;;;107333;1253;62790;-79
2024/02/28 11:29:46;;;;;;;159.20;81.50;;;;;;;;;;107301;1256;61261;-78
2024/02/28 11:32:14;;;;;;;86.00;47.20;;;;;;;;;;107307;1257;61349;-84
2024/02/28 11:34:41;;;;;;;82.30;45.20;;;;;;;;;;107150;1254;61303;-84
2024/02/28 11:37:08;;;;;;;158.50;77.70;;;;;;;;;;107250;1254;61231;-83
2024/02/28 11:39:36;;;;;;;154.30;72.40;;;;;;;;;;107114;1254;62006;-79
2024/02/28 11:42:15;;;;;;;157.00;68.40;;;;;;;;;;106602;1254;61208;-80
2024/02/28 11:44:42;;;;;;;60.50;27.80;;;;;;;;;;106358;1254;61295;-83
2024/02/28 11:47:09;;;;;;;40.30;21.20;;;;;;;;;;106912;1259;59926;-79
2024/02/28 11:49:36;;;;;;;38.60;21.20;;;;;;;;;;106894;1253;61202;-79
2024/02/28 11:52:04;;;;;;;37.80;25.80;;;;;;;;;;108180;1254;61973;-79
2024/02/28 11:54:30;;;;;;;39.70;21.40;;;;;;;;;;106935;1253;62263;-79
2024/02/28 11:56:57;;;;;;;44.80;22.10;;;;;;;;;;106447;1256;61218;-78
2024/02/28 11:59:23;;;;;;;35.70;20.40;;;;;;;;;;107015;1251;61345;-79
2024/02/28 12:01:51;;;;;;;25.60;16.90;;;;;;;;;;107137;1256;62120;-83
2024/02/28 12:04:18;;;;;;;35.50;19.00;;;;;;;;;;106940;1255;61157;-83
2024/02/28 12:06:44;;;;;;;39.30;20.10;;;;;;;;;;107007;1254;61219;-79
2024/02/28 12:09:11;;;;;;;33.90;22.20;;;;;;;;;;106334;1256;61349;-84
2024/02/28 12:11:38;;;;;;;32.60;18.80;;;;;;;;;;107232;1256;61236;-84
2024/02/28 12:14:06;;;;;;;40.50;21.20;;;;;;;;;;107079;1255;61231;-79
2024/02/28 12:16:33;;;;;;;;;;;;;;;;;;106555;1256;62019;-79
2024/02/28 12:18:59;;;;;;;38.80;19.80;;;;;;;;;;106608;1256;61317;-83
2024/02/28 12:21:26;;;;;;;40.60;19.30;;;;;;;;;;107369;1254;61198;-83
2024/02/28 12:23:52;;;;;;;30.70;17.40;;;;;;;;;;107297;1256;61295;-82
2024/02/28 12:26:19;;;;;;;41.30;22.20;;;;;;;;;;107327;1256;61279;-79
2024/02/28 12:28:45;;;;;;;54.30;27.30;;;;;;;;;;107312;1254;61403;-83
2024/02/28 12:31:13;;;;;;;43.20;24.40;;;;;;;;;;107301;1256;61153;-83
2024/02/28 12:33:39;;;;;;;49.00;24.30;;;;;;;;;;107306;1255;61086;-82
2024/02/28 12:36:06;;;;;;;39.70;22.90;;;;;;;;;;108252;1251;62290;-78
2024/02/28 12:38:32;;;;;;;44.00;23.00;;;;;;;;;;109427;1253;58957;-83
2024/02/28 12:40:59;;;;;;;41.30;22.50;;;;;;;;;;109395;1255;59420;-83
2024/02/28 12:43:25;;;;;;;44.90;23.80;;;;;;;;;;109430;1254;59077;-83
2024/02/28 12:45:52;;;;;;;48.00;24.10;;;;;;;;;;109412;1256;58881;-79
2024/02/28 12:48:18;;;;;;;48.30;22.50;;;;;;;;;;109379;1256;59634;-79
2024/02/28 12:50:44;;;;;;;37.90;20.60;;;;;;;;;;109394;1254;58860;-83
2024/02/28 12:53:11;;;;;;;37.10;22.30;;;;;;;;;;109420;1253;59030;-79
2024/02/28 12:55:37;;;;;;;38.00;23.10;;;;;;;;;;109224;1254;59589;-79
2024/02/28 12:58:05;;;;;;;31.50;19.80;;;;;;;;;;109440;1252;59262;-84
2024/02/28 13:00:31;;;;;;;34.70;21.10;;;;;;;;;;109429;1254;59061;-80
2024/02/28 13:02:58;;;;;;;41.50;26.80;;;;;;;;;;109331;1254;59160;-84
2024/02/28 13:05:25;;;;;;;41.90;22.90;;;;;;;;;;109420;1254;59169;-80
2024/02/28 13:07:52;;;;;;;36.60;23.80;;;;;;;;;;109372;1254;58924;-84
2024/02/28 13:10:19;;;;;;;40.80;24.10;;;;;;;;;;109409;1254;59750;-80
2024/02/28 13:12:45;;;;;;;44.20;24.80;;;;;;;;;;109404;1254;58954;-80
2024/02/28 13:15:12;;;;;;;39.00;25.60;;;;;;;;;;109371;1253;59323;-80
2024/02/28 13:17:38;;;;;;;50.40;27.20;;;;;;;;;;109400;1252;61946;-84
2024/02/28 13:20:05;;;;;;;49.10;28.60;;;;;;;;;;109390;1253;59092;-80
2024/02/28 13:22:31;;;;;;;48.70;25.90;;;;;;;;;;109305;1257;59027;-84
2024/02/28 13:24:57;;;;;;;46.60;29.00;;;;;;;;;;109407;1256;59340;-79
2024/02/28 13:27:24;;;;;;;57.40;32.00;;;;;;;;;;109375;1251;59290;-84
2024/02/28 13:29:50;;;;;;;58.50;33.20;;;;;;;;;;109413;1251;59174;-84
2024/02/28 13:32:17;;;;;;;71.90;36.00;;;;;;;;;;108343;1251;61282;-79
2024/02/28 13:34:43;;;;;;;99.40;43.00;;;;;;;;;;107074;1251;61252;-84
2024/02/28 13:37:09;;;;;;;108.80;44.70;;;;;;;;;;107988;1254;61345;-79
2024/02/28 13:39:36;;;;;;;93.60;39.70;;;;;;;;;;109540;1256;58906;-84
2024/02/28 13:42:06;;;;;;;94.70;38.60;;;;;;;;;;109259;1254;59666;-79
2024/02/28 13:44:34;;;;;;;55.30;30.10;;;;;;;;;;109318;1253;61545;-80
2024/02/28 13:47:00;;;;;;;61.40;30.50;;;;;;;;;;109384;1253;58910;-79
2024/02/28 13:49:27;;;;;;;63.30;30.90;;;;;;;;;;109417;1253;59092;-80
2024/02/28 13:51:53;;;;;;;65.70;31.50;;;;;;;;;;109313;1254;58956;-84
2024/02/28 13:54:20;;;;;;;70.60;34.70;;;;;;;;;;109442;1253;59066;-84
2024/02/28 13:56:46;;;;;;;77.50;40.10;;;;;;;;;;109425;1253;58872;-84
2024/02/28 13:59:13;;;;;;;74.70;39.40;;;;;;;;;;109411;1253;59233;-79
2024/02/28 14:01:39;;;;;;;67.90;38.10;;;;;;;;;;109209;1254;59073;-79